Time;durP1;ratioP1;P1;durP2;ratioP2;P2;SDS_P1;SDS_P2;PMS_P1;PMS_P2;Temp;Humidity;BMP_temperature;BMP_pressure;BME280_temperature;BME280_humidity;BME280_pressure;Samples;Min_cycle;Max_cycle;Signal;HPM_P1;HPM_P2
2022/06/27 00:00:36;;;;;;;;;3.00;3.00;;;;;18.67;57.75;100868.22;5075932;27;45662;-60
2022/06/27 00:03:01;;;;;;;;;4.00;3.00;;;;;18.67;57.70;100862.84;5076677;27;46288;-63
2022/06/27 00:05:27;;;;;;;;;4.67;3.00;;;;;18.64;58.13;100854.16;5077024;27;45329;-61
2022/06/27 00:07:52;;;;;;;;;5.33;4.00;;;;;18.62;58.16;100854.28;5077965;27;45361;-64
2022/06/27 00:10:18;;;;;;;;;3.67;3.00;;;;;18.61;58.50;100852.53;5085861;27;45582;-63
2022/06/27 00:12:44;;;;;;;;;5.33;4.00;;;;;18.58;58.51;100848.28;5084793;27;45450;-61
2022/06/27 00:15:10;;;;;;;;;3.00;3.00;;;;;18.56;58.65;100854.78;5077589;27;45415;-62
2022/06/27 00:17:36;;;;;;;;;3.00;3.00;;;;;18.55;58.92;100863.84;5077235;27;45401;-62
2022/06/27 00:20:02;;;;;;;;;4.00;2.00;;;;;18.55;59.15;100869.22;5075149;27;45396;-64
2022/06/27 00:22:27;;;;;;;;;3.00;3.00;;;;;18.54;58.76;100864.84;5076007;27;45334;-61
2022/06/27 00:24:53;;;;;;;;;4.00;3.00;;;;;18.50;58.80;100861.56;5075297;27;45717;-62
2022/06/27 00:27:19;;;;;;;;;2.33;2.33;;;;;18.51;58.49;100857.88;5078778;27;45316;-62
2022/06/27 00:29:44;;;;;;;;;2.33;2.33;;;;;18.47;58.76;100869.03;5077306;27;45188;-64
2022/06/27 00:32:10;;;;;;;;;2.00;2.00;;;;;18.44;57.82;100856.66;5075952;27;47142;-64
2022/06/27 00:34:36;;;;;;;;;4.00;4.00;;;;;18.45;58.62;100849.44;5075715;27;45374;-62
2022/06/27 00:37:01;;;;;;;;;1.00;1.00;;;;;18.43;57.96;100854.13;5077125;27;45498;-63
2022/06/27 00:39:27;;;;;;;;;3.00;3.00;;;;;18.42;58.17;100844.31;5077044;27;45538;-63
2022/06/27 00:41:53;;;;;;;;;3.00;3.00;;;;;18.40;58.10;100847.16;5077536;27;46005;-62
2022/06/27 00:44:36;;;;;;;;;3.33;2.00;;;;;18.40;58.05;100857.06;5074780;27;45333;-61
2022/06/27 00:47:03;;;;;;;;;2.00;2.00;;;;;18.40;57.64;100854.38;5072225;27;45301;-64
2022/06/27 00:49:29;;;;;;;;;3.00;3.00;;;;;18.40;57.74;100859.78;5072966;27;45567;-61
2022/06/27 00:51:55;;;;;;;;;2.00;2.00;;;;;18.39;57.69;100845.44;5076265;27;46083;-62
2022/06/27 00:54:22;;;;;;;;;2.67;2.67;;;;;18.36;57.40;100848.41;5076266;27;45510;-62
2022/06/27 00:56:48;;;;;;;;;2.00;2.00;;;;;18.32;57.70;100860.41;5078385;27;45409;-67
2022/06/27 00:59:13;;;;;;;;;3.00;3.00;;;;;18.33;57.98;100859.41;5077073;27;45436;-65
2022/06/27 01:01:38;;;;;;;;;3.67;2.67;;;;;18.34;57.56;100860.28;5076419;27;45373;-61
2022/06/27 01:04:04;;;;;;;;;2.67;2.00;;;;;18.34;57.69;100863.81;5075600;27;45374;-66
2022/06/27 01:06:29;;;;;;;;;2.33;2.33;;;;;18.33;57.46;100872.88;5076023;27;45773;-64
2022/06/27 01:08:55;;;;;;;;;3.00;3.00;;;;;18.30;57.23;100869.59;5077165;27;45661;-63
2022/06/27 01:11:21;;;;;;;;;4.00;2.00;;;;;18.27;57.66;100870.72;5075758;27;47816;-61
2022/06/27 01:13:49;;;;;;;;;3.67;3.67;;;;;18.24;57.22;100860.22;5076697;27;45450;-60
2022/06/27 01:16:14;;;;;;;;;2.00;2.00;;;;;18.24;57.93;100863.75;5076356;27;45644;-64
2022/06/27 01:18:41;;;;;;;;;3.00;3.00;;;;;18.32;58.17;100873.00;5076167;27;45318;-63
2022/06/27 01:21:07;;;;;;;;;2.00;2.00;;;;;18.32;57.95;100867.63;5074658;27;46295;-63
2022/06/27 01:23:36;;;;;;;;;2.00;2.00;;;;;18.30;57.88;100859.69;5061929;27;45468;-64
2022/06/27 01:26:03;;;;;;;;;4.00;2.67;;;;;18.32;57.81;100867.63;5076816;27;45391;-64
2022/06/27 01:28:29;;;;;;;;;4.00;1.67;;;;;18.31;57.74;100877.53;5077109;27;45637;-66
2022/06/27 01:30:55;;;;;;;;;2.00;2.00;;;;;18.31;58.13;100866.78;5075684;27;46545;-63
2022/06/27 01:33:20;;;;;;;;;3.00;3.00;;;;;18.31;57.78;100871.31;5076247;27;45610;-65
2022/06/27 01:35:46;;;;;;;;;3.33;2.67;;;;;18.30;57.79;100875.84;5074058;27;45400;-65
2022/06/27 01:38:12;;;;;;;;;3.00;3.00;;;;;18.32;57.89;100883.78;5074692;27;45654;-64
2022/06/27 01:40:37;;;;;;;;;2.33;2.33;;;;;18.30;58.18;100891.13;5076712;27;45451;-67
2022/06/27 01:43:04;;;;;;;;;2.00;2.00;;;;;18.31;57.88;100882.94;5076342;27;46741;-64
2022/06/27 01:45:30;;;;;;;;;3.00;3.00;;;;;18.24;57.75;100870.97;5074825;27;45421;-61
2022/06/27 01:47:56;;;;;;;;;3.00;3.00;;;;;18.32;57.82;100873.00;5075465;27;45326;-60
2022/06/27 01:50:24;;;;;;;;;3.67;2.00;;;;;18.34;57.84;100876.41;5076822;27;46117;-65
2022/06/27 01:52:51;;;;;;;;;2.00;2.00;;;;;18.38;58.10;100883.28;5076050;27;45740;-64
2022/06/27 01:55:19;;;;;;;;;2.00;2.00;;;;;18.39;57.53;100871.53;5076177;27;45366;-61
2022/06/27 01:57:47;;;;;;;;;3.00;2.00;;;;;18.37;57.45;100871.66;5076013;27;45575;-63
2022/06/27 02:00:14;;;;;;;;;2.00;2.00;;;;;18.42;57.88;100868.56;5076371;27;45480;-61
2022/06/27 02:02:41;;;;;;;;;2.00;2.00;;;;;18.42;57.95;100863.19;5095006;27;45354;-63
2022/06/27 02:05:06;;;;;;;;;3.00;3.00;;;;;18.44;57.99;100866.59;5082392;27;45528;-61
2022/06/27 02:07:32;;;;;;;;;2.00;2.00;;;;;18.46;57.31;100861.94;5074633;27;45567;-61
2022/06/27 02:09:57;;;;;;;;;2.33;2.33;;;;;18.47;57.25;100867.19;5090938;27;45325;-61
2022/06/27 02:12:23;;;;;;;;;3.00;2.00;;;;;18.47;57.25;100855.56;5071291;27;45184;-64
2022/06/27 02:14:52;;;;;;;;;3.00;2.00;;;;;18.48;57.37;100857.25;5074415;27;45330;-62
2022/06/27 02:17:18;;;;;;;;;4.33;3.00;;;;;18.45;57.47;100857.53;5074479;27;45464;-61
2022/06/27 02:19:44;;;;;;;;;2.33;2.33;;;;;18.47;57.47;100852.84;5075541;27;46415;-62
2022/06/27 02:22:11;;;;;;;;;3.00;3.00;;;;;18.49;57.34;100849.06;5075867;27;45480;-63
2022/06/27 02:24:37;;;;;;;;;4.00;1.00;;;;;18.50;57.27;100847.25;5075694;27;45675;-60
2022/06/27 02:27:04;;;;;;;;;1.00;1.00;;;;;18.53;57.33;100853.22;5075929;27;46713;-65
2022/06/27 02:29:29;;;;;;;;;3.00;1.00;;;;;18.52;57.20;100862.28;5075372;27;47782;-61
2022/06/27 02:31:58;;;;;;;;;2.00;2.00;;;;;18.46;56.96;100853.84;5072514;27;45347;-62
2022/06/27 02:34:23;;;;;;;;;3.00;3.00;;;;;18.50;57.40;100866.09;5075260;27;45385;-61
2022/06/27 02:36:49;;;;;;;;;1.67;1.67;;;;;18.59;57.42;100873.38;5075779;27;45569;-60
2022/06/27 02:39:18;;;;;;;;;5.00;2.00;;;;;18.63;57.11;100861.38;5073549;27;45848;-59
2022/06/27 02:41:45;;;;;;;;;4.00;3.00;;;;;18.64;57.01;100854.16;5074987;27;45188;-63
2022/06/27 02:44:12;;;;;;;;;3.00;1.00;;;;;18.69;56.95;100855.47;5076039;27;45662;-64
2022/06/27 02:46:39;;;;;;;;;4.00;2.67;;;;;18.68;56.84;100875.31;5072282;27;45439;-60
2022/06/27 02:49:05;;;;;;;;;6.33;3.00;;;;;18.69;56.95;100871.63;5075465;27;45468;-65
2022/06/27 02:51:36;;;;;;;;;3.00;3.00;;;;;18.72;57.13;100876.75;5075188;27;45425;-65
2022/06/27 02:54:09;;;;;;;;;4.67;3.33;;;;;18.75;56.96;100878.31;5075156;27;45626;-65
2022/06/27 02:56:41;;;;;;;;;3.00;3.00;;;;;18.74;56.62;100879.31;5076291;27;45457;-68
2022/06/27 02:59:16;;;;;;;;;2.00;2.00;;;;;18.76;56.41;100878.22;5075114;27;45258;-65
2022/06/27 03:01:42;;;;;;;;;1.00;1.00;;;;;18.76;56.62;100880.91;5073799;27;45649;-62
2022/06/27 03:04:08;;;;;;;;;4.00;3.00;;;;;18.77;56.76;100885.31;5073715;27;45551;-62
2022/06/27 03:06:34;;;;;;;;;1.33;1.33;;;;;18.74;56.41;100893.63;5074428;27;45672;-63
2022/06/27 03:08:59;;;;;;;;;4.00;3.00;;;;;18.74;57.06;100877.47;5075683;27;45469;-61
2022/06/27 03:11:26;;;;;;;;;3.33;2.33;;;;;18.75;56.95;100873.81;5073836;27;45470;-58
2022/06/27 03:13:52;;;;;;;;;2.33;1.00;;;;;18.69;56.75;100871.63;5074857;27;45459;-62
2022/06/27 03:16:19;;;;;;;;;3.00;2.00;;;;;18.68;56.51;100869.06;5075130;27;45566;-63
2022/06/27 03:18:46;;;;;;;;;1.00;1.00;;;;;18.66;56.54;100861.13;5074158;27;46337;-61
2022/06/27 03:21:12;;;;;;;;;3.00;3.00;;;;;18.70;56.80;100857.19;5073358;27;45483;-63
2022/06/27 03:23:39;;;;;;;;;1.00;1.00;;;;;18.71;56.73;100853.50;5074303;27;45336;-62
2022/06/27 03:26:04;;;;;;;;;3.33;2.00;;;;;18.71;57.18;100853.50;5075800;28;45588;-66
2022/06/27 03:28:30;;;;;;;;;2.67;2.67;;;;;18.73;56.82;100867.69;5075086;27;45293;-63
2022/06/27 03:30:55;;;;;;;;;2.33;2.33;;;;;18.73;56.79;100858.75;5072848;27;45237;-62
2022/06/27 03:33:21;;;;;;;;;3.00;3.00;;;;;18.74;56.51;100861.31;5071761;27;45298;-62
2022/06/27 03:35:46;;;;;;;;;1.00;1.00;;;;;18.70;56.41;100845.53;5074378;27;45490;-62
2022/06/27 03:38:12;;;;;;;;;6.33;2.00;;;;;18.69;56.42;100860.84;5072077;27;45493;-61
2022/06/27 03:40:38;;;;;;;;;2.00;2.00;;;;;18.64;56.19;100855.03;5074191;27;45417;-61
2022/06/27 03:43:03;;;;;;;;;3.00;3.00;;;;;18.67;56.26;100846.66;5075430;27;45507;-61
2022/06/27 03:45:29;;;;;;;;;2.00;2.00;;;;;18.61;56.59;100830.13;5075025;27;45456;-60
2022/06/27 03:47:58;;;;;;;;;2.33;2.33;;;;;18.67;56.41;100849.38;5073976;27;46861;-62
2022/06/27 03:50:25;;;;;;;;;2.67;1.33;;;;;18.65;56.61;100856.72;5073832;27;45528;-59
2022/06/27 03:52:53;;;;;;;;;1.67;1.67;;;;;18.64;56.58;100856.88;5074134;27;45528;-66
2022/06/27 03:55:18;;;;;;;;;1.67;1.67;;;;;18.63;56.77;100861.38;5075536;27;45369;-63
2022/06/27 03:57:55;;;;;;;;;4.00;3.00;;;;;18.59;56.99;100849.13;5074174;27;45429;-62
2022/06/27 04:00:22;;;;;;;;;3.00;3.00;;;;;18.62;56.78;100856.09;5077365;27;45354;-61
2022/06/27 04:02:47;;;;;;;;;2.00;2.00;;;;;18.60;57.07;100856.22;5076967;27;45504;-61
2022/06/27 04:05:13;;;;;;;;;3.00;3.00;;;;;18.58;57.30;100859.03;5080544;27;45586;-62
2022/06/27 04:07:39;;;;;;;;;3.00;3.00;;;;;18.54;57.03;100875.59;5075851;27;46281;-61
2022/06/27 04:10:09;;;;;;;;;2.33;2.33;;;;;18.55;57.31;100882.69;5085906;27;45404;-64
2022/06/27 04:12:36;;;;;;;;;2.00;2.00;;;;;18.57;57.31;100878.88;5080989;27;45433;-68
2022/06/27 04:15:03;;;;;;;;;3.00;2.00;;;;;18.57;56.84;100878.03;5077580;27;45420;-65
2022/06/27 04:17:28;;;;;;;;;2.00;2.00;;;;;18.56;56.86;100892.50;5077630;27;45575;-62
2022/06/27 04:19:54;;;;;;;;;4.00;3.33;;;;;18.57;57.01;100883.41;5075754;27;45276;-62
2022/06/27 04:22:19;;;;;;;;;5.33;3.00;;;;;18.56;56.86;100887.09;5076179;27;45493;-60
2022/06/27 04:24:46;;;;;;;;;4.33;2.00;;;;;18.56;56.86;100897.88;5078500;27;45282;-65
2022/06/27 04:27:11;;;;;;;;;3.00;3.00;;;;;18.60;56.99;100901.16;5078321;27;46150;-65
2022/06/27 04:29:36;;;;;;;;;4.67;4.00;;;;;18.61;56.90;100897.47;5076825;27;45382;-67
2022/06/27 04:32:02;;;;;;;;;2.33;1.67;;;;;18.55;57.11;100896.16;5075290;27;45255;-65
2022/06/27 04:34:28;;;;;;;;;2.00;2.00;;;;;18.58;56.84;100914.75;5076102;27;45860;-62
2022/06/27 04:36:53;;;;;;;;;2.67;2.00;;;;;18.57;56.77;100921.97;5075665;27;46771;-61
2022/06/27 04:39:22;;;;;;;;;4.00;3.00;;;;;18.56;57.12;100922.13;5076626;27;45608;-63
2022/06/27 04:41:50;;;;;;;;;2.00;2.00;;;;;18.56;56.79;100922.97;5076011;27;45487;-67
2022/06/27 04:44:18;;;;;;;;;4.00;4.00;;;;;18.55;56.91;100925.78;5076690;27;45430;-65
2022/06/27 04:46:47;;;;;;;;;5.33;3.67;;;;;18.55;56.83;100929.34;5076823;27;45549;-67
2022/06/27 04:49:14;;;;;;;;;2.00;1.00;;;;;18.57;57.28;100932.75;5077325;27;45325;-61
2022/06/27 04:51:41;;;;;;;;;1.00;0.00;;;;;18.56;56.83;100924.81;5075344;27;45569;-62
2022/06/27 04:54:10;;;;;;;;;2.67;2.67;;;;;18.54;56.31;100921.41;5076911;27;45622;-66
2022/06/27 04:56:39;;;;;;;;;2.00;2.00;;;;;18.55;56.72;100917.72;5075803;27;46152;-66
2022/06/27 04:59:05;;;;;;;;;4.67;2.00;;;;;18.50;56.72;100912.72;5076796;27;45566;-62
2022/06/27 05:01:30;;;;;;;;;1.00;1.00;;;;;18.50;56.96;100915.44;5073985;27;45535;-63
2022/06/27 05:03:56;;;;;;;;;3.00;1.00;;;;;18.53;57.38;100903.53;5095385;27;45551;-62
2022/06/27 05:06:21;;;;;;;;;1.00;1.00;;;;;18.53;56.64;100898.13;5094410;27;45390;-63
2022/06/27 05:08:46;;;;;;;;;2.00;2.00;;;;;18.54;57.01;100889.06;5077298;27;45239;-63
2022/06/27 05:11:12;;;;;;;;;2.33;2.33;;;;;18.56;56.92;100887.94;5077812;27;45432;-65
2022/06/27 05:13:37;;;;;;;;;2.00;2.00;;;;;18.55;56.91;100886.25;5076766;27;45359;-64
2022/06/27 05:16:03;;;;;;;;;3.00;3.00;;;;;18.55;57.22;100897.03;5075930;27;45603;-64
2022/06/27 05:18:29;;;;;;;;;3.00;3.00;;;;;18.59;57.36;100908.38;5074103;27;45557;-63
2022/06/27 05:20:55;;;;;;;;;2.00;2.00;;;;;18.52;56.83;100897.28;5077886;27;45488;-62
2022/06/27 05:23:20;;;;;;;;;3.00;3.00;;;;;18.61;57.65;100898.31;5077762;27;45346;-66
2022/06/27 05:25:46;;;;;;;;;2.67;1.67;;;;;18.64;57.16;100900.81;5076000;27;45658;-65
2022/06/27 05:28:11;;;;;;;;;5.00;2.67;;;;;18.66;57.09;100901.53;5077047;27;45688;-62
2022/06/27 05:30:37;;;;;;;;;2.00;2.00;;;;;18.64;56.85;100887.34;5076113;28;45324;-62
2022/06/27 05:33:02;;;;;;;;;3.33;3.33;;;;;18.69;57.14;100893.19;5077048;27;45281;-65
2022/06/27 05:35:28;;;;;;;;;4.33;3.00;;;;;18.71;56.69;100920.84;5089627;27;46100;-63
2022/06/27 05:37:57;;;;;;;;;3.00;3.00;;;;;18.76;57.14;100936.66;5075428;27;45414;-65
2022/06/27 05:40:24;;;;;;;;;3.33;2.67;;;;;18.77;56.97;100901.47;5077024;27;45460;-65
2022/06/27 05:42:50;;;;;;;;;1.67;1.67;;;;;18.75;56.52;100908.84;5077730;27;45469;-69
2022/06/27 05:45:16;;;;;;;;;2.33;2.33;;;;;18.70;56.59;100926.38;5076942;27;45345;-66
2022/06/27 05:47:43;;;;;;;;;23.33;13.33;;;;;18.67;56.84;100930.19;5077294;27;45499;-63
2022/06/27 05:50:09;;;;;;;;;2.00;2.00;;;;;18.69;56.80;100932.75;5073159;27;46658;-71
2022/06/27 05:52:36;;;;;;;;;2.33;1.00;;;;;18.69;56.58;100933.59;5077828;27;45361;-63
2022/06/27 05:55:02;;;;;;;;;5.00;3.00;;;;;18.67;56.64;100921.25;5075039;27;46190;-68
2022/06/27 05:57:28;;;;;;;;;2.33;2.33;;;;;18.70;56.74;100929.91;5075446;28;45628;-68
2022/06/27 05:59:55;;;;;;;;;4.67;2.00;;;;;18.68;56.63;100934.59;5077690;27;45317;-64
2022/06/27 06:02:21;;;;;;;;;3.33;2.00;;;;;18.69;56.67;100941.69;5076429;27;45612;-68
2022/06/27 06:04:48;;;;;;;;;3.33;2.67;;;;;18.70;56.58;100938.00;5078260;27;45495;-65
2022/06/27 06:07:14;;;;;;;;;3.33;2.00;;;;;18.73;56.33;100945.81;5073553;27;45895;-64
2022/06/27 06:09:41;;;;;;;;;4.00;2.33;;;;;18.76;56.69;100948.28;5057108;27;45284;-64
2022/06/27 06:12:09;;;;;;;;;3.33;3.33;;;;;18.79;56.85;100952.53;5074347;27;45579;-63
2022/06/27 06:14:35;;;;;;;;;4.00;4.00;;;;;18.83;57.12;100954.84;5075894;27;45475;-64
2022/06/27 06:17:01;;;;;;;;;4.33;4.33;;;;;18.83;57.06;100948.59;5074792;27;45384;-60
2022/06/27 06:19:27;;;;;;;;;2.00;2.00;;;;;18.81;57.30;100948.72;5073654;27;45576;-64
2022/06/27 06:21:52;;;;;;;;;4.00;4.00;;;;;18.83;57.18;100946.75;5089263;27;45349;-66
2022/06/27 06:24:18;;;;;;;;;6.00;3.33;;;;;18.85;56.68;100925.91;5063874;28;47544;-65
2022/06/27 06:26:45;;;;;;;;;4.00;4.00;;;;;18.86;56.87;100919.53;5075457;27;46074;-65
2022/06/27 06:29:15;;;;;;;;;4.00;4.00;;;;;18.92;56.96;100944.28;5074585;27;45224;-65
2022/06/27 06:31:44;;;;;;;;;5.00;4.00;;;;;18.94;57.34;100959.31;5062867;27;45312;-66
2022/06/27 06:34:13;;;;;;;;;3.00;3.00;;;;;19.03;56.62;100976.56;5062434;28;45331;-68
2022/06/27 06:36:41;;;;;;;;;3.67;3.00;;;;;19.03;56.18;100968.47;5076189;27;45515;-65
2022/06/27 06:39:07;;;;;;;;;4.00;4.00;;;;;19.07;56.65;100978.00;5076933;27;45381;-65
2022/06/27 06:41:33;;;;;;;;;2.00;2.00;;;;;19.10;56.59;100992.06;5087287;27;45478;-65
2022/06/27 06:44:00;;;;;;;;;3.33;2.00;;;;;19.10;56.90;100993.91;5074897;27;45754;-66
2022/06/27 06:46:30;;;;;;;;;5.67;4.33;;;;;19.05;56.44;100978.13;5074758;27;45209;-63
2022/06/27 06:49:02;;;;;;;;;3.33;3.00;;;;;19.11;56.88;100987.53;5073922;27;45427;-63
2022/06/27 06:51:28;;;;;;;;;4.00;4.00;;;;;19.14;56.69;100984.56;5066958;27;45522;-63
2022/06/27 06:53:54;;;;;;;;;2.00;2.00;;;;;19.19;56.54;100994.97;5072242;27;45932;-61
2022/06/27 06:56:19;;;;;;;;;3.00;3.00;;;;;19.26;56.12;100994.28;5070956;27;45536;-63
2022/06/27 06:58:45;;;;;;;;;2.00;2.00;;;;;19.36;55.50;100997.91;5075381;27;45712;-63
2022/06/27 07:01:10;;;;;;;;;4.00;3.00;;;;;19.41;55.42;101022.66;5074874;27;45550;-62
2022/06/27 07:03:35;;;;;;;;;5.00;4.00;;;;;19.34;55.91;101029.56;5067464;27;45532;-62
2022/06/27 07:06:05;;;;;;;;;5.00;5.00;;;;;19.29;55.97;101037.19;5075215;27;45365;-62
2022/06/27 07:08:31;;;;;;;;;3.67;3.67;;;;;19.30;56.49;101040.75;5076038;27;45321;-63
2022/06/27 07:10:57;;;;;;;;;2.67;2.67;;;;;19.31;56.71;101039.75;5066399;27;45371;-61
2022/06/27 07:13:23;;;;;;;;;6.00;5.67;;;;;19.47;56.27;101047.38;5068913;27;45554;-65
2022/06/27 07:15:48;;;;;;;;;4.00;4.00;;;;;19.56;55.89;101049.31;5076350;27;45441;-65
2022/06/27 07:18:14;;;;;;;;;5.33;5.33;;;;;19.63;55.53;101045.09;5066041;27;45506;-61
2022/06/27 07:20:39;;;;;;;;;3.67;3.67;;;;;19.64;54.87;101060.28;5063950;27;45666;-63
2022/06/27 07:23:06;;;;;;;;;3.00;3.00;;;;;19.60;54.95;101064.25;5104938;27;46023;-62
2022/06/27 07:25:35;;;;;;;;;4.00;2.00;;;;;19.58;54.86;101053.59;5055255;28;45420;-63
2022/06/27 07:28:01;;;;;;;;;4.00;3.00;;;;;19.57;54.60;101067.22;5055363;27;45402;-61
2022/06/27 07:30:28;;;;;;;;;4.00;4.00;;;;;19.51;54.90;101073.94;5074243;27;45223;-62
2022/06/27 07:32:54;;;;;;;;;3.00;3.00;;;;;19.45;54.87;101075.34;5082274;27;45479;-62
2022/06/27 07:35:19;;;;;;;;;5.67;4.00;;;;;19.36;55.21;101065.34;5074398;27;45413;-66
2022/06/27 07:37:51;;;;;;;;;3.00;3.00;;;;;19.38;55.07;101065.19;5068333;27;45406;-63
2022/06/27 07:40:22;;;;;;;;;4.33;4.33;;;;;19.40;55.22;101072.19;5071748;27;45538;-64
2022/06/27 07:42:51;;;;;;;;;4.33;4.33;;;;;19.38;55.49;101063.34;5067802;28;46198;-63
2022/06/27 07:45:18;;;;;;;;;6.33;2.00;;;;;19.43;55.11;101071.94;5074178;27;45480;-61
2022/06/27 07:47:48;;;;;;;;;4.00;2.00;;;;;19.56;54.96;101065.50;5071876;27;45381;-63
2022/06/27 07:53:11;;;;;;;;;3.00;2.00;;;;;19.83;54.08;101071.22;5078700;27;45717;-64
2022/06/27 07:55:40;;;;;;;;;2.00;2.00;;;;;19.82;54.23;101056.00;5077736;27;45397;-63
2022/06/27 07:58:07;;;;;;;;;3.00;3.00;;;;;19.89;53.68;101073.34;5095195;27;45356;-64
2022/06/27 08:00:33;;;;;;;;;3.33;3.00;;;;;19.87;53.92;101075.34;5090890;27;45503;-67
2022/06/27 08:03:36;;;;;;;;;3.67;3.67;;;;;19.88;54.19;101077.06;5077403;27;46221;-63
2022/06/27 08:05:45;;;;;;;;;3.33;1.00;;;;;19.94;54.07;101076.53;5076130;27;45489;-61
2022/06/27 08:08:10;;;;;;;;;2.33;2.33;;;;;19.95;54.18;101083.63;5109362;27;45417;-65
2022/06/27 08:10:36;;;;;;;;;3.00;3.00;;;;;19.94;53.74;101084.63;5087477;27;45632;-63
2022/06/27 08:13:01;;;;;;;;;4.00;3.00;;;;;19.94;53.68;101083.78;5094173;27;45557;-63
2022/06/27 08:15:27;;;;;;;;;2.00;2.00;;;;;20.00;54.13;101086.78;5098839;27;45333;-62
2022/06/27 08:17:53;;;;;;;;;3.00;1.67;;;;;20.13;52.55;101085.69;5083126;27;45300;-64
2022/06/27 08:20:19;;;;;;;;;2.00;2.00;;;;;20.10;51.79;101088.69;5078524;27;45339;-63
2022/06/27 08:22:44;;;;;;;;;2.00;1.67;;;;;20.00;52.39;101086.78;5078363;27;46156;-63
2022/06/27 08:25:10;;;;;;;;;3.00;2.00;;;;;19.94;52.82;101092.72;5078822;27;45424;-63
2022/06/27 08:27:37;;;;;;;;;1.00;1.00;;;;;19.96;52.91;101095.28;5078093;27;45358;-63
2022/06/27 08:30:03;;;;;;;;;2.33;2.33;;;;;19.90;52.70;101112.84;5076902;28;45735;-64
2022/06/27 08:32:28;;;;;;;;;3.67;3.00;;;;;19.78;53.13;101124.72;5077920;28;45397;-63
2022/06/27 08:34:55;;;;;;;;;2.00;1.00;;;;;19.62;53.31;101135.97;5077647;27;45264;-63
2022/06/27 08:37:23;;;;;;;;;4.00;2.00;;;;;19.52;53.95;101112.56;5078239;27;45337;-63
2022/06/27 08:39:48;;;;;;;;;3.67;3.00;;;;;19.39;54.38;101102.81;5078212;27;45622;-62
2022/06/27 08:42:14;;;;;;;;;5.00;3.33;;;;;19.34;54.53;101121.25;5078335;27;46045;-63
2022/06/27 08:44:40;;;;;;;;;2.67;2.67;;;;;19.39;55.12;101120.84;5075973;27;45397;-63
2022/06/27 08:47:06;;;;;;;;;5.00;3.00;;;;;19.40;56.03;101125.25;5077986;27;45429;-63
2022/06/27 08:49:32;;;;;;;;;3.67;3.67;;;;;19.59;56.29;101111.09;5077816;27;45555;-63
2022/06/27 08:51:58;;;;;;;;;6.67;3.33;;;;;19.97;55.63;101108.66;5077400;28;45364;-62
2022/06/27 08:54:23;;;;;;;;;4.33;4.33;;;;;20.31;54.27;101111.06;5077692;27;45338;-63
2022/06/27 08:56:50;;;;;;;;;3.00;3.00;;;;;20.27;52.91;101110.50;5078051;27;45219;-63
2022/06/27 08:59:16;;;;;;;;;3.33;3.33;;;;;20.47;53.45;101116.00;5076540;27;45409;-63
2022/06/27 09:01:41;;;;;;;;;3.33;3.33;;;;;20.82;53.01;101100.16;5076485;28;47097;-63
2022/06/27 09:04:09;;;;;;;;;7.00;3.00;;;;;21.15;52.60;101101.63;5077559;27;45209;-64
2022/06/27 09:06:55;;;;;;;;;4.00;3.00;;;;;21.51;51.67;101101.09;5076660;28;45393;-63
2022/06/27 09:09:24;;;;;;;;;2.67;2.67;;;;;21.71;51.18;101100.88;5077622;27;45551;-63
2022/06/27 09:11:50;;;;;;;;;2.00;2.00;;;;;21.88;50.22;101087.63;5076133;27;48318;-64
2022/06/27 09:14:31;;;;;;;;;3.33;2.00;;;;;21.97;47.75;101102.97;5077712;28;45369;-62
2022/06/27 09:17:04;;;;;;;;;2.00;2.00;;;;;21.92;48.02;101099.84;5076250;27;45475;-64
2022/06/27 09:19:45;;;;;;;;;1.33;1.33;;;;;22.03;47.91;101107.81;5059066;28;45510;-64
2022/06/27 09:22:16;;;;;;;;;1.25;1.25;;;;;22.07;46.12;101106.53;5075728;27;45301;-63
2022/06/27 09:25:04;;;;;;;;;1.25;1.25;;;;;22.37;46.20;101106.25;5075964;28;45456;-62
2022/06/27 09:27:44;;;;;;;;;2.00;2.00;;;;;22.92;45.81;101102.72;5076261;28;45286;-62
2022/06/27 09:30:22;;;;;;;;;3.75;3.00;;;;;23.47;45.03;101103.41;5076638;27;45493;-66
2022/06/27 09:32:49;;;;;;;;;1.00;1.00;;;;;23.73;43.52;101094.47;5077052;28;45393;-63
2022/06/27 09:35:26;;;;;;;;;1.00;1.00;;;;;24.11;42.85;101094.03;5077388;27;45459;-64
2022/06/27 09:37:57;;;;;;;;;1.00;1.00;;;;;24.53;40.28;101098.66;5078804;27;45668;-63
2022/06/27 09:40:25;;;;;;;;;2.00;2.00;;;;;24.99;41.06;101088.22;5076302;28;45389;-63
2022/06/27 09:42:54;;;;;;;;;2.25;1.00;;;;;25.64;42.61;101095.59;5077001;27;46126;-61
2022/06/27 09:45:23;;;;;;;;;1.00;1.00;;;;;26.16;39.13;101099.63;5077334;27;45489;-63
2022/06/27 09:47:54;;;;;;;;;0.50;0.50;;;;;26.58;37.12;101103.09;5077368;27;45464;-63
2022/06/27 09:50:21;;;;;;;;;2.75;2.00;;;;;26.86;39.45;101100.72;5077690;27;45445;-62
2022/06/27 09:52:47;;;;;;;;;0.60;0.60;;;;;27.17;40.33;101097.97;5076828;27;46391;-64
2022/06/27 09:55:14;;;;;;;;;1.00;1.00;;;;;27.49;38.04;101092.28;5076390;27;45457;-63
2022/06/27 09:57:40;;;;;;;;;1.00;1.00;;;;;27.84;35.55;101089.91;5076997;27;45229;-64
2022/06/27 10:00:08;;;;;;;;;1.00;1.00;;;;;28.08;36.47;101086.91;5075956;27;45579;-63
2022/06/27 10:02:34;;;;;;;;;0.40;0.40;;;;;28.26;34.51;101089.28;5076858;27;46928;-65
2022/06/27 10:05:00;;;;;;;;;1.00;1.00;;;;;28.49;38.90;101089.19;5076881;27;45414;-63
2022/06/27 10:07:26;;;;;;;;;2.00;1.00;;;;;28.58;34.43;101092.66;5076678;27;45394;-63
2022/06/27 10:09:53;;;;;;;;;1.80;1.80;;;;;28.66;36.45;101093.41;5074664;27;45462;-63
2022/06/27 10:12:22;;;;;;;;;1.00;1.00;;;;;28.44;35.82;101092.50;5076665;27;46165;-64
2022/06/27 10:15:09;;;;;;;;;3.00;1.80;;;;;28.49;35.85;101098.25;5076650;27;45249;-63
2022/06/27 10:17:42;;;;;;;;;0.20;0.20;;;;;28.68;34.40;101096.81;5076538;28;45287;-63
2022/06/27 10:20:36;;;;;;;;;0.40;0.20;;;;;28.75;35.06;101094.13;5076739;27;45250;-63
2022/06/27 10:23:13;;;;;;;;;2.20;1.00;;;;;28.78;34.24;101102.84;5074151;27;45271;-63
2022/06/27 10:25:41;;;;;;;;;1.00;1.00;;;;;28.53;35.37;101104.19;5076624;27;45391;-63
2022/06/27 10:30:55;;;;;;;;;2.80;1.00;;;;;28.01;34.88;101094.19;5076266;27;45458;-64
2022/06/27 10:33:20;;;;;;;;;0.00;0.00;;;;;27.75;31.63;101107.44;5074737;28;45306;-63
2022/06/27 10:38:25;;;;;;;;;1.00;1.00;;;;;26.97;32.91;101097.59;5076754;27;45334;-63
2022/06/27 10:40:55;;;;;;;;;0.50;0.50;;;;;26.67;32.40;101102.00;5075291;27;45460;-63
2022/06/27 10:43:39;;;;;;;;;1.00;1.00;;;;;26.18;33.49;101104.94;5076357;27;45283;-63
2022/06/27 10:46:10;;;;;;;;;3.80;1.80;;;;;25.86;32.68;101098.50;5074710;28;45274;-62
2022/06/27 10:48:39;;;;;;;;;0.20;0.00;;;;;25.57;33.73;101100.91;5076572;27;45827;-64
2022/06/27 10:51:19;;;;;;;;;1.50;0.00;;;;;25.21;34.74;101108.53;5076080;27;45562;-63
2022/06/27 10:53:50;;;;;;;;;0.25;0.25;;;;;24.90;34.44;101111.88;5074619;28;45424;-63
2022/06/27 10:56:39;;;;;;;;;1.60;0.60;;;;;24.65;35.54;101102.78;5075660;27;45492;-63
2022/06/27 10:59:14;;;;;;;;;1.00;1.00;;;;;24.54;35.12;101111.25;5075863;27;45373;-64
2022/06/27 11:02:02;;;;;;;;;1.50;1.50;;;;;24.28;37.00;101102.25;5076054;27;45607;-63
2022/06/27 11:04:36;;;;;;;;;1.25;1.25;;;;;24.03;37.47;101107.56;5074471;28;47029;-63
2022/06/27 11:07:06;;;;;;;;;1.00;1.00;;;;;23.75;37.58;101098.72;5076251;27;45412;-63
2022/06/27 11:09:39;;;;;;;;;2.00;1.00;;;;;23.68;36.41;101110.38;5079863;27;45315;-64
2022/06/27 11:12:06;;;;;;;;;1.00;1.00;;;;;23.64;37.48;101106.28;5079559;27;45370;-64
2022/06/27 11:14:59;;;;;;;;;2.25;2.25;;;;;23.70;37.09;101089.31;5078888;27;46558;-63
2022/06/27 11:17:44;;;;;;;;;1.80;1.80;;;;;23.61;37.21;101101.16;5078905;27;45324;-62
2022/06/27 11:20:19;;;;;;;;;2.00;2.00;;;;;23.58;36.99;101093.34;5079261;27;45365;-63
2022/06/27 11:22:48;;;;;;;;;2.25;2.25;;;;;23.49;37.10;101104.09;5079762;27;45328;-63
2022/06/27 11:25:13;;;;;;;;;4.75;3.00;;;;;23.32;37.38;101096.84;5079133;27;46262;-63
2022/06/27 11:27:51;;;;;;;;;2.00;1.00;;;;;23.22;37.53;101098.75;5077914;27;45749;-63
2022/06/27 11:33:21;;;;;;;;;3.00;2.00;;;;;23.10;37.79;101113.56;5079198;28;45176;-63
2022/06/27 11:35:48;;;;;;;;;1.00;1.00;;;;;23.19;36.82;101102.66;5078864;27;45519;-63
2022/06/27 11:38:20;;;;;;;;;1.50;1.50;;;;;23.36;36.67;101097.34;5079268;27;45354;-63